sensor_id;sensor_type;location;lat;lon;timestamp;P1;durP1;ratioP1;P2;durP2;ratioP2
37203;SDS011;23098;48.054;10.636;2024-02-26T00:00:14;9.15;;;4.32;;
37203;SDS011;23098;48.054;10.636;2024-02-26T00:02:40;6.13;;;3.95;;
37203;SDS011;23098;48.054;10.636;2024-02-26T00:05:07;6.75;;;3.58;;
37203;SDS011;23098;48.054;10.636;2024-02-26T00:07:33;8.50;;;4.15;;
37203;SDS011;23098;48.054;10.636;2024-02-26T00:09:59;8.80;;;3.72;;
37203;SDS011;23098;48.054;10.636;2024-02-26T00:12:24;7.40;;;4.15;;
37203;SDS011;23098;48.054;10.636;2024-02-26T00:14:50;12.50;;;3.72;;
37203;SDS011;23098;48.054;10.636;2024-02-26T00:17:15;7.80;;;3.90;;
37203;SDS011;23098;48.054;10.636;2024-02-26T00:19:41;7.70;;;3.92;;
37203;SDS011;23098;48.054;10.636;2024-02-26T00:22:06;5.03;;;3.20;;
37203;SDS011;23098;48.054;10.636;2024-02-26T00:24:32;5.78;;;3.63;;
37203;SDS011;23098;48.054;10.636;2024-02-26T00:26:58;6.40;;;3.50;;
37203;SDS011;23098;48.054;10.636;2024-02-26T00:29:24;7.03;;;3.85;;
37203;SDS011;23098;48.054;10.636;2024-02-26T00:31:50;5.68;;;3.55;;
37203;SDS011;23098;48.054;10.636;2024-02-26T00:34:16;6.00;;;3.28;;
37203;SDS011;23098;48.054;10.636;2024-02-26T00:36:42;9.25;;;4.22;;
37203;SDS011;23098;48.054;10.636;2024-02-26T00:39:07;6.15;;;3.50;;
37203;SDS011;23098;48.054;10.636;2024-02-26T00:41:33;4.25;;;3.17;;
37203;SDS011;23098;48.054;10.636;2024-02-26T00:44:02;6.05;;;3.58;;
37203;SDS011;23098;48.054;10.636;2024-02-26T00:46:28;6.43;;;3.65;;
37203;SDS011;23098;48.054;10.636;2024-02-26T00:48:53;4.95;;;3.33;;
37203;SDS011;23098;48.054;10.636;2024-02-26T00:51:19;5.80;;;3.22;;
37203;SDS011;23098;48.054;10.636;2024-02-26T00:53:45;7.95;;;3.78;;
37203;SDS011;23098;48.054;10.636;2024-02-26T00:56:10;6.75;;;3.47;;
37203;SDS011;23098;48.054;10.636;2024-02-26T00:58:36;5.95;;;3.45;;
37203;SDS011;23098;48.054;10.636;2024-02-26T01:01:01;7.07;;;4.00;;
37203;SDS011;23098;48.054;10.636;2024-02-26T01:03:27;6.57;;;4.00;;
37203;SDS011;23098;48.054;10.636;2024-02-26T01:05:53;7.60;;;4.00;;
37203;SDS011;23098;48.054;10.636;2024-02-26T01:08:19;8.05;;;4.05;;
37203;SDS011;23098;48.054;10.636;2024-02-26T01:10:45;6.93;;;4.22;;
37203;SDS011;23098;48.054;10.636;2024-02-26T01:13:11;7.43;;;4.05;;
37203;SDS011;23098;48.054;10.636;2024-02-26T01:15:36;7.75;;;4.47;;
37203;SDS011;23098;48.054;10.636;2024-02-26T01:18:02;9.18;;;4.60;;
37203;SDS011;23098;48.054;10.636;2024-02-26T01:20:27;7.65;;;4.28;;
37203;SDS011;23098;48.054;10.636;2024-02-26T01:22:53;6.93;;;3.72;;
37203;SDS011;23098;48.054;10.636;2024-02-26T01:25:18;6.80;;;4.22;;
37203;SDS011;23098;48.054;10.636;2024-02-26T01:27:44;5.78;;;3.92;;
37203;SDS011;23098;48.054;10.636;2024-02-26T01:30:10;7.85;;;3.97;;
37203;SDS011;23098;48.054;10.636;2024-02-26T01:32:36;6.93;;;3.60;;
37203;SDS011;23098;48.054;10.636;2024-02-26T01:35:02;5.13;;;3.70;;
37203;SDS011;23098;48.054;10.636;2024-02-26T01:37:35;7.78;;;3.92;;
37203;SDS011;23098;48.054;10.636;2024-02-26T01:40:00;6.40;;;3.47;;
37203;SDS011;23098;48.054;10.636;2024-02-26T01:42:28;5.32;;;3.70;;
37203;SDS011;23098;48.054;10.636;2024-02-26T01:44:55;6.30;;;3.75;;
37203;SDS011;23098;48.054;10.636;2024-02-26T01:47:21;8.55;;;3.50;;
37203;SDS011;23098;48.054;10.636;2024-02-26T01:49:47;6.95;;;3.25;;
37203;SDS011;23098;48.054;10.636;2024-02-26T01:52:13;6.60;;;3.55;;
37203;SDS011;23098;48.054;10.636;2024-02-26T01:54:39;6.38;;;3.58;;
37203;SDS011;23098;48.054;10.636;2024-02-26T01:57:06;6.38;;;3.60;;
37203;SDS011;23098;48.054;10.636;2024-02-26T01:59:33;4.80;;;3.30;;
37203;SDS011;23098;48.054;10.636;2024-02-26T02:02:01;6.10;;;3.35;;
37203;SDS011;23098;48.054;10.636;2024-02-26T02:04:28;7.22;;;3.95;;
37203;SDS011;23098;48.054;10.636;2024-02-26T02:06:54;6.07;;;3.40;;
37203;SDS011;23098;48.054;10.636;2024-02-26T02:09:20;6.43;;;3.92;;
37203;SDS011;23098;48.054;10.636;2024-02-26T02:11:47;5.28;;;4.03;;
37203;SDS011;23098;48.054;10.636;2024-02-26T02:14:13;8.30;;;3.92;;
37203;SDS011;23098;48.054;10.636;2024-02-26T02:16:39;5.93;;;3.50;;
37203;SDS011;23098;48.054;10.636;2024-02-26T02:19:05;6.50;;;3.70;;
37203;SDS011;23098;48.054;10.636;2024-02-26T02:21:30;5.53;;;3.58;;
37203;SDS011;23098;48.054;10.636;2024-02-26T02:23:56;5.93;;;3.38;;
37203;SDS011;23098;48.054;10.636;2024-02-26T02:26:22;5.57;;;3.33;;
37203;SDS011;23098;48.054;10.636;2024-02-26T02:28:47;4.65;;;3.50;;
37203;SDS011;23098;48.054;10.636;2024-02-26T02:31:14;5.32;;;3.50;;
37203;SDS011;23098;48.054;10.636;2024-02-26T02:33:40;5.32;;;3.28;;
37203;SDS011;23098;48.054;10.636;2024-02-26T02:36:06;6.40;;;3.65;;
37203;SDS011;23098;48.054;10.636;2024-02-26T02:38:34;7.65;;;4.00;;
37203;SDS011;23098;48.054;10.636;2024-02-26T02:41:03;5.57;;;3.22;;
37203;SDS011;23098;48.054;10.636;2024-02-26T02:43:30;7.30;;;3.30;;
37203;SDS011;23098;48.054;10.636;2024-02-26T02:45:55;5.47;;;3.63;;
37203;SDS011;23098;48.054;10.636;2024-02-26T02:48:21;5.07;;;3.53;;
37203;SDS011;23098;48.054;10.636;2024-02-26T02:50:46;4.57;;;3.33;;
37203;SDS011;23098;48.054;10.636;2024-02-26T02:53:12;5.65;;;3.55;;
37203;SDS011;23098;48.054;10.636;2024-02-26T02:55:37;6.28;;;3.55;;
37203;SDS011;23098;48.054;10.636;2024-02-26T02:58:03;6.95;;;3.58;;
37203;SDS011;23098;48.054;10.636;2024-02-26T03:00:28;4.75;;;3.10;;
37203;SDS011;23098;48.054;10.636;2024-02-26T03:02:54;5.13;;;3.38;;
37203;SDS011;23098;48.054;10.636;2024-02-26T03:05:19;6.05;;;3.22;;
37203;SDS011;23098;48.054;10.636;2024-02-26T03:07:45;6.18;;;3.65;;
37203;SDS011;23098;48.054;10.636;2024-02-26T03:10:10;5.05;;;3.35;;
37203;SDS011;23098;48.054;10.636;2024-02-26T03:12:36;5.30;;;3.55;;
37203;SDS011;23098;48.054;10.636;2024-02-26T03:15:02;6.43;;;3.92;;
37203;SDS011;23098;48.054;10.636;2024-02-26T03:17:28;6.82;;;3.63;;
37203;SDS011;23098;48.054;10.636;2024-02-26T03:19:54;6.80;;;3.58;;
37203;SDS011;23098;48.054;10.636;2024-02-26T03:22:20;5.63;;;3.60;;
37203;SDS011;23098;48.054;10.636;2024-02-26T03:24:46;7.45;;;3.85;;
37203;SDS011;23098;48.054;10.636;2024-02-26T03:27:12;7.22;;;3.85;;
37203;SDS011;23098;48.054;10.636;2024-02-26T03:29:37;5.97;;;3.88;;
37203;SDS011;23098;48.054;10.636;2024-02-26T03:32:04;7.30;;;3.67;;
37203;SDS011;23098;48.054;10.636;2024-02-26T03:34:30;5.82;;;3.70;;
37203;SDS011;23098;48.054;10.636;2024-02-26T03:36:56;7.32;;;3.80;;
37203;SDS011;23098;48.054;10.636;2024-02-26T03:39:22;6.28;;;3.63;;
37203;SDS011;23098;48.054;10.636;2024-02-26T03:41:48;6.95;;;3.70;;
37203;SDS011;23098;48.054;10.636;2024-02-26T03:44:13;6.35;;;3.63;;
37203;SDS011;23098;48.054;10.636;2024-02-26T03:46:39;5.68;;;3.50;;
37203;SDS011;23098;48.054;10.636;2024-02-26T03:49:07;6.43;;;3.60;;
37203;SDS011;23098;48.054;10.636;2024-02-26T03:51:33;5.30;;;3.38;;
37203;SDS011;23098;48.054;10.636;2024-02-26T03:53:58;5.35;;;3.60;;
37203;SDS011;23098;48.054;10.636;2024-02-26T03:56:25;4.20;;;3.20;;
37203;SDS011;23098;48.054;10.636;2024-02-26T03:58:51;5.00;;;3.35;;
37203;SDS011;23098;48.054;10.636;2024-02-26T04:01:16;6.78;;;3.47;;
37203;SDS011;23098;48.054;10.636;2024-02-26T04:03:41;4.95;;;2.83;;
37203;SDS011;23098;48.054;10.636;2024-02-26T04:06:10;35.22;;;8.80;;
37203;SDS011;23098;48.054;10.636;2024-02-26T04:08:36;17.00;;;5.88;;
37203;SDS011;23098;48.054;10.636;2024-02-26T04:11:02;6.53;;;3.80;;
37203;SDS011;23098;48.054;10.636;2024-02-26T04:13:32;6.25;;;3.50;;
37203;SDS011;23098;48.054;10.636;2024-02-26T04:15:58;8.05;;;3.92;;
37203;SDS011;23098;48.054;10.636;2024-02-26T04:18:26;9.65;;;4.22;;
37203;SDS011;23098;48.054;10.636;2024-02-26T04:20:52;5.75;;;3.58;;
37203;SDS011;23098;48.054;10.636;2024-02-26T04:23:17;5.60;;;3.25;;
37203;SDS011;23098;48.054;10.636;2024-02-26T04:25:43;4.28;;;2.90;;
37203;SDS011;23098;48.054;10.636;2024-02-26T04:28:08;5.13;;;2.90;;
37203;SDS011;23098;48.054;10.636;2024-02-26T04:30:34;4.88;;;2.95;;
37203;SDS011;23098;48.054;10.636;2024-02-26T04:32:59;4.43;;;3.20;;
37203;SDS011;23098;48.054;10.636;2024-02-26T04:35:25;4.53;;;2.67;;
37203;SDS011;23098;48.054;10.636;2024-02-26T04:37:50;5.45;;;3.28;;
37203;SDS011;23098;48.054;10.636;2024-02-26T04:40:16;5.35;;;3.08;;
37203;SDS011;23098;48.054;10.636;2024-02-26T04:42:41;6.32;;;3.30;;
37203;SDS011;23098;48.054;10.636;2024-02-26T04:45:07;5.85;;;3.10;;
37203;SDS011;23098;48.054;10.636;2024-02-26T04:47:33;5.18;;;3.13;;
37203;SDS011;23098;48.054;10.636;2024-02-26T04:49:59;5.22;;;3.10;;
37203;SDS011;23098;48.054;10.636;2024-02-26T04:52:25;7.65;;;3.72;;
37203;SDS011;23098;48.054;10.636;2024-02-26T04:54:50;4.70;;;3.30;;
37203;SDS011;23098;48.054;10.636;2024-02-26T04:57:16;5.75;;;3.53;;
37203;SDS011;23098;48.054;10.636;2024-02-26T04:59:43;4.18;;;2.75;;
37203;SDS011;23098;48.054;10.636;2024-02-26T05:02:10;5.18;;;3.35;;
37203;SDS011;23098;48.054;10.636;2024-02-26T05:04:36;4.25;;;3.25;;
37203;SDS011;23098;48.054;10.636;2024-02-26T05:07:02;6.65;;;2.90;;
37203;SDS011;23098;48.054;10.636;2024-02-26T05:09:28;4.03;;;2.90;;
37203;SDS011;23098;48.054;10.636;2024-02-26T05:11:54;5.50;;;3.00;;
37203;SDS011;23098;48.054;10.636;2024-02-26T05:14:19;5.40;;;2.95;;
37203;SDS011;23098;48.054;10.636;2024-02-26T05:16:47;4.03;;;2.63;;
37203;SDS011;23098;48.054;10.636;2024-02-26T05:19:13;5.40;;;2.90;;
37203;SDS011;23098;48.054;10.636;2024-02-26T05:21:39;4.97;;;3.05;;
37203;SDS011;23098;48.054;10.636;2024-02-26T05:24:05;6.03;;;4.32;;
37203;SDS011;23098;48.054;10.636;2024-02-26T05:26:31;5.78;;;3.83;;
37203;SDS011;23098;48.054;10.636;2024-02-26T05:28:56;8.45;;;3.30;;
37203;SDS011;23098;48.054;10.636;2024-02-26T05:31:25;4.18;;;2.80;;
37203;SDS011;23098;48.054;10.636;2024-02-26T05:33:54;5.93;;;3.20;;
37203;SDS011;23098;48.054;10.636;2024-02-26T05:36:20;5.35;;;2.83;;
37203;SDS011;23098;48.054;10.636;2024-02-26T05:38:47;5.15;;;3.10;;
37203;SDS011;23098;48.054;10.636;2024-02-26T05:41:13;4.75;;;3.03;;
37203;SDS011;23098;48.054;10.636;2024-02-26T05:43:50;3.75;;;2.88;;
37203;SDS011;23098;48.054;10.636;2024-02-26T05:46:17;5.50;;;2.88;;
37203;SDS011;23098;48.054;10.636;2024-02-26T05:48:43;5.82;;;2.80;;
37203;SDS011;23098;48.054;10.636;2024-02-26T05:51:09;3.17;;;2.42;;
37203;SDS011;23098;48.054;10.636;2024-02-26T05:53:35;4.90;;;3.20;;
37203;SDS011;23098;48.054;10.636;2024-02-26T05:56:00;3.75;;;2.78;;
37203;SDS011;23098;48.054;10.636;2024-02-26T05:58:26;4.47;;;2.00;;
37203;SDS011;23098;48.054;10.636;2024-02-26T06:00:51;3.65;;;2.35;;
37203;SDS011;23098;48.054;10.636;2024-02-26T06:03:17;5.65;;;2.80;;
37203;SDS011;23098;48.054;10.636;2024-02-26T06:05:42;3.60;;;2.60;;
37203;SDS011;23098;48.054;10.636;2024-02-26T06:08:08;4.03;;;2.53;;
37203;SDS011;23098;48.054;10.636;2024-02-26T06:10:34;4.47;;;2.15;;
37203;SDS011;23098;48.054;10.636;2024-02-26T06:12:59;3.95;;;1.98;;
37203;SDS011;23098;48.054;10.636;2024-02-26T06:15:25;7.45;;;2.60;;
37203;SDS011;23098;48.054;10.636;2024-02-26T06:17:50;6.05;;;3.10;;
37203;SDS011;23098;48.054;10.636;2024-02-26T06:20:16;9.98;;;3.38;;
37203;SDS011;23098;48.054;10.636;2024-02-26T06:22:41;3.72;;;2.03;;
37203;SDS011;23098;48.054;10.636;2024-02-26T06:25:07;4.90;;;2.47;;
37203;SDS011;23098;48.054;10.636;2024-02-26T06:27:33;5.32;;;2.40;;
37203;SDS011;23098;48.054;10.636;2024-02-26T06:30:00;4.28;;;2.45;;
37203;SDS011;23098;48.054;10.636;2024-02-26T06:32:25;4.25;;;2.65;;
37203;SDS011;23098;48.054;10.636;2024-02-26T06:34:53;4.43;;;2.60;;
37203;SDS011;23098;48.054;10.636;2024-02-26T06:37:19;4.93;;;2.55;;
37203;SDS011;23098;48.054;10.636;2024-02-26T06:39:45;4.45;;;2.28;;
37203;SDS011;23098;48.054;10.636;2024-02-26T06:42:10;4.07;;;2.45;;
37203;SDS011;23098;48.054;10.636;2024-02-26T06:44:36;3.78;;;2.58;;
37203;SDS011;23098;48.054;10.636;2024-02-26T06:47:01;4.82;;;2.75;;
37203;SDS011;23098;48.054;10.636;2024-02-26T06:49:27;4.10;;;2.22;;
37203;SDS011;23098;48.054;10.636;2024-02-26T06:51:54;7.75;;;2.97;;
37203;SDS011;23098;48.054;10.636;2024-02-26T06:54:19;5.18;;;2.90;;
37203;SDS011;23098;48.054;10.636;2024-02-26T06:56:45;5.70;;;3.00;;
37203;SDS011;23098;48.054;10.636;2024-02-26T06:59:11;8.68;;;3.05;;
37203;SDS011;23098;48.054;10.636;2024-02-26T07:01:36;5.82;;;3.13;;
37203;SDS011;23098;48.054;10.636;2024-02-26T07:04:02;3.78;;;2.65;;
37203;SDS011;23098;48.054;10.636;2024-02-26T07:06:27;6.28;;;3.53;;
37203;SDS011;23098;48.054;10.636;2024-02-26T07:08:53;3.83;;;2.47;;
37203;SDS011;23098;48.054;10.636;2024-02-26T07:11:18;4.65;;;2.90;;
37203;SDS011;23098;48.054;10.636;2024-02-26T07:13:45;4.68;;;2.53;;
37203;SDS011;23098;48.054;10.636;2024-02-26T07:16:11;4.28;;;2.47;;
37203;SDS011;23098;48.054;10.636;2024-02-26T07:18:36;3.78;;;2.67;;
37203;SDS011;23098;48.054;10.636;2024-02-26T07:21:05;4.68;;;2.15;;
37203;SDS011;23098;48.054;10.636;2024-02-26T07:23:31;3.63;;;2.10;;
37203;SDS011;23098;48.054;10.636;2024-02-26T07:25:57;4.90;;;2.40;;
37203;SDS011;23098;48.054;10.636;2024-02-26T07:28:23;6.40;;;3.85;;
37203;SDS011;23098;48.054;10.636;2024-02-26T07:30:49;4.25;;;2.72;;
37203;SDS011;23098;48.054;10.636;2024-02-26T07:33:14;4.15;;;2.70;;
37203;SDS011;23098;48.054;10.636;2024-02-26T07:35:40;4.88;;;3.00;;
37203;SDS011;23098;48.054;10.636;2024-02-26T07:38:06;5.93;;;2.40;;
37203;SDS011;23098;48.054;10.636;2024-02-26T07:40:31;3.00;;;2.25;;
37203;SDS011;23098;48.054;10.636;2024-02-26T07:42:57;3.40;;;2.35;;
37203;SDS011;23098;48.054;10.636;2024-02-26T07:45:22;4.68;;;2.25;;
37203;SDS011;23098;48.054;10.636;2024-02-26T07:47:48;3.88;;;2.67;;
37203;SDS011;23098;48.054;10.636;2024-02-26T07:50:14;6.10;;;2.63;;
37203;SDS011;23098;48.054;10.636;2024-02-26T07:52:39;4.07;;;2.47;;
37203;SDS011;23098;48.054;10.636;2024-02-26T07:55:05;6.40;;;1.90;;
37203;SDS011;23098;48.054;10.636;2024-02-26T07:57:34;4.25;;;2.70;;
37203;SDS011;23098;48.054;10.636;2024-02-26T08:00:00;7.68;;;4.47;;
37203;SDS011;23098;48.054;10.636;2024-02-26T08:02:27;6.53;;;2.58;;
37203;SDS011;23098;48.054;10.636;2024-02-26T08:04:53;8.73;;;2.53;;
37203;SDS011;23098;48.054;10.636;2024-02-26T08:07:18;2.30;;;1.98;;
37203;SDS011;23098;48.054;10.636;2024-02-26T08:09:45;6.25;;;2.78;;
37203;SDS011;23098;48.054;10.636;2024-02-26T08:12:11;3.58;;;2.30;;
37203;SDS011;23098;48.054;10.636;2024-02-26T08:14:36;4.65;;;2.50;;
37203;SDS011;23098;48.054;10.636;2024-02-26T08:17:02;3.35;;;2.03;;
37203;SDS011;23098;48.054;10.636;2024-02-26T08:19:28;3.05;;;1.80;;
37203;SDS011;23098;48.054;10.636;2024-02-26T08:21:53;3.83;;;2.50;;
37203;SDS011;23098;48.054;10.636;2024-02-26T08:24:23;3.83;;;2.03;;
37203;SDS011;23098;48.054;10.636;2024-02-26T08:26:48;3.08;;;2.00;;
37203;SDS011;23098;48.054;10.636;2024-02-26T08:29:14;3.30;;;1.90;;
37203;SDS011;23098;48.054;10.636;2024-02-26T08:31:39;3.05;;;2.00;;
37203;SDS011;23098;48.054;10.636;2024-02-26T08:34:06;3.30;;;2.00;;
37203;SDS011;23098;48.054;10.636;2024-02-26T08:36:32;6.47;;;2.08;;
37203;SDS011;23098;48.054;10.636;2024-02-26T08:38:59;4.22;;;2.67;;
37203;SDS011;23098;48.054;10.636;2024-02-26T08:41:24;3.75;;;2.25;;
37203;SDS011;23098;48.054;10.636;2024-02-26T08:43:49;3.50;;;2.50;;
37203;SDS011;23098;48.054;10.636;2024-02-26T08:46:15;4.03;;;2.83;;
37203;SDS011;23098;48.054;10.636;2024-02-26T08:48:41;3.60;;;1.77;;
37203;SDS011;23098;48.054;10.636;2024-02-26T08:51:07;4.05;;;2.10;;
37203;SDS011;23098;48.054;10.636;2024-02-26T08:53:33;5.75;;;2.50;;
37203;SDS011;23098;48.054;10.636;2024-02-26T08:55:59;5.25;;;2.97;;
37203;SDS011;23098;48.054;10.636;2024-02-26T08:58:24;2.90;;;2.28;;
37203;SDS011;23098;48.054;10.636;2024-02-26T09:00:50;4.68;;;2.40;;
37203;SDS011;23098;48.054;10.636;2024-02-26T09:03:15;3.30;;;2.45;;
37203;SDS011;23098;48.054;10.636;2024-02-26T09:05:41;5.88;;;3.10;;
37203;SDS011;23098;48.054;10.636;2024-02-26T09:08:06;4.65;;;2.88;;
37203;SDS011;23098;48.054;10.636;2024-02-26T09:10:32;7.47;;;3.28;;
37203;SDS011;23098;48.054;10.636;2024-02-26T09:12:58;6.22;;;4.00;;
37203;SDS011;23098;48.054;10.636;2024-02-26T09:15:23;3.25;;;1.90;;
37203;SDS011;23098;48.054;10.636;2024-02-26T09:17:49;3.83;;;2.83;;
37203;SDS011;23098;48.054;10.636;2024-02-26T09:20:15;4.25;;;2.60;;
37203;SDS011;23098;48.054;10.636;2024-02-26T09:22:44;5.40;;;2.58;;
37203;SDS011;23098;48.054;10.636;2024-02-26T09:25:13;3.72;;;2.55;;
37203;SDS011;23098;48.054;10.636;2024-02-26T09:27:40;3.97;;;3.10;;
37203;SDS011;23098;48.054;10.636;2024-02-26T09:30:08;3.60;;;2.67;;
37203;SDS011;23098;48.054;10.636;2024-02-26T09:32:35;5.93;;;2.42;;
37203;SDS011;23098;48.054;10.636;2024-02-26T09:35:01;4.18;;;2.78;;
37203;SDS011;23098;48.054;10.636;2024-02-26T09:37:26;3.42;;;2.42;;
37203;SDS011;23098;48.054;10.636;2024-02-26T09:39:52;4.50;;;3.20;;
37203;SDS011;23098;48.054;10.636;2024-02-26T09:42:18;6.57;;;3.10;;
37203;SDS011;23098;48.054;10.636;2024-02-26T09:44:44;3.85;;;2.58;;
37203;SDS011;23098;48.054;10.636;2024-02-26T09:47:11;5.20;;;2.95;;
37203;SDS011;23098;48.054;10.636;2024-02-26T09:49:41;5.47;;;3.17;;
37203;SDS011;23098;48.054;10.636;2024-02-26T09:52:07;5.30;;;3.25;;
37203;SDS011;23098;48.054;10.636;2024-02-26T09:54:34;5.40;;;3.05;;
37203;SDS011;23098;48.054;10.636;2024-02-26T09:57:01;6.82;;;3.50;;
37203;SDS011;23098;48.054;10.636;2024-02-26T09:59:39;9.95;;;5.93;;
37203;SDS011;23098;48.054;10.636;2024-02-26T10:02:07;14.18;;;7.57;;
37203;SDS011;23098;48.054;10.636;2024-02-26T10:04:36;12.43;;;6.90;;
37203;SDS011;23098;48.054;10.636;2024-02-26T10:07:02;10.55;;;6.18;;
37203;SDS011;23098;48.054;10.636;2024-02-26T10:09:29;7.97;;;4.90;;
37203;SDS011;23098;48.054;10.636;2024-02-26T10:11:56;5.60;;;3.90;;
37203;SDS011;23098;48.054;10.636;2024-02-26T10:14:22;8.27;;;3.60;;
37203;SDS011;23098;48.054;10.636;2024-02-26T10:16:49;6.20;;;3.42;;
37203;SDS011;23098;48.054;10.636;2024-02-26T10:19:25;6.18;;;3.88;;
37203;SDS011;23098;48.054;10.636;2024-02-26T10:21:58;6.13;;;3.35;;
37203;SDS011;23098;48.054;10.636;2024-02-26T10:24:25;6.68;;;2.60;;
37203;SDS011;23098;48.054;10.636;2024-02-26T10:26:52;5.45;;;2.70;;
37203;SDS011;23098;48.054;10.636;2024-02-26T10:29:18;4.30;;;2.88;;
37203;SDS011;23098;48.054;10.636;2024-02-26T10:31:44;4.07;;;2.70;;
37203;SDS011;23098;48.054;10.636;2024-02-26T10:34:10;4.68;;;3.13;;
37203;SDS011;23098;48.054;10.636;2024-02-26T10:36:36;8.13;;;4.53;;
37203;SDS011;23098;48.054;10.636;2024-02-26T10:39:03;5.55;;;3.85;;
37203;SDS011;23098;48.054;10.636;2024-02-26T10:41:30;5.35;;;3.40;;
37203;SDS011;23098;48.054;10.636;2024-02-26T10:43:57;5.70;;;3.80;;
37203;SDS011;23098;48.054;10.636;2024-02-26T10:46:23;5.53;;;3.25;;
37203;SDS011;23098;48.054;10.636;2024-02-26T10:48:50;3.85;;;2.85;;
37203;SDS011;23098;48.054;10.636;2024-02-26T10:51:18;4.07;;;2.70;;
37203;SDS011;23098;48.054;10.636;2024-02-26T10:53:55;4.22;;;3.17;;
37203;SDS011;23098;48.054;10.636;2024-02-26T10:56:26;3.97;;;3.10;;
37203;SDS011;23098;48.054;10.636;2024-02-26T10:58:53;5.05;;;3.17;;
37203;SDS011;23098;48.054;10.636;2024-02-26T11:01:20;5.97;;;2.97;;
37203;SDS011;23098;48.054;10.636;2024-02-26T11:03:51;5.88;;;2.88;;
37203;SDS011;23098;48.054;10.636;2024-02-26T11:06:18;4.70;;;3.22;;
37203;SDS011;23098;48.054;10.636;2024-02-26T11:08:47;5.72;;;4.00;;
37203;SDS011;23098;48.054;10.636;2024-02-26T11:11:14;4.50;;;3.60;;
37203;SDS011;23098;48.054;10.636;2024-02-26T11:13:42;4.07;;;3.10;;
37203;SDS011;23098;48.054;10.636;2024-02-26T11:18:39;5.22;;;3.28;;
37203;SDS011;23098;48.054;10.636;2024-02-26T11:21:07;5.75;;;3.22;;
37203;SDS011;23098;48.054;10.636;2024-02-26T11:23:33;6.80;;;3.70;;
37203;SDS011;23098;48.054;10.636;2024-02-26T11:26:01;5.60;;;3.03;;
37203;SDS011;23098;48.054;10.636;2024-02-26T11:28:30;5.82;;;3.38;;
37203;SDS011;23098;48.054;10.636;2024-02-26T11:30:57;5.78;;;3.67;;
37203;SDS011;23098;48.054;10.636;2024-02-26T11:33:25;4.68;;;2.92;;
37203;SDS011;23098;48.054;10.636;2024-02-26T11:35:51;7.65;;;3.17;;
37203;SDS011;23098;48.054;10.636;2024-02-26T11:38:20;3.22;;;2.20;;
37203;SDS011;23098;48.054;10.636;2024-02-26T11:40:51;4.15;;;2.40;;
37203;SDS011;23098;48.054;10.636;2024-02-26T11:43:17;4.15;;;2.45;;
37203;SDS011;23098;48.054;10.636;2024-02-26T11:46:05;3.90;;;2.80;;
37203;SDS011;23098;48.054;10.636;2024-02-26T11:48:50;4.43;;;2.90;;
37203;SDS011;23098;48.054;10.636;2024-02-26T11:51:16;3.50;;;2.70;;
37203;SDS011;23098;48.054;10.636;2024-02-26T11:53:46;3.50;;;2.70;;
37203;SDS011;23098;48.054;10.636;2024-02-26T11:56:20;4.10;;;3.03;;
37203;SDS011;23098;48.054;10.636;2024-02-26T11:58:48;4.70;;;3.40;;
37203;SDS011;23098;48.054;10.636;2024-02-26T12:04:04;5.20;;;3.55;;
37203;SDS011;23098;48.054;10.636;2024-02-26T12:06:39;4.55;;;2.78;;
37203;SDS011;23098;48.054;10.636;2024-02-26T12:09:06;4.75;;;3.10;;
37203;SDS011;23098;48.054;10.636;2024-02-26T12:11:33;4.10;;;3.08;;
37203;SDS011;23098;48.054;10.636;2024-02-26T12:14:03;5.70;;;3.00;;
37203;SDS011;23098;48.054;10.636;2024-02-26T12:16:37;4.95;;;3.53;;
37203;SDS011;23098;48.054;10.636;2024-02-26T12:19:07;5.82;;;3.28;;
37203;SDS011;23098;48.054;10.636;2024-02-26T12:21:34;5.13;;;3.40;;
37203;SDS011;23098;48.054;10.636;2024-02-26T12:24:10;5.03;;;2.97;;
37203;SDS011;23098;48.054;10.636;2024-02-26T12:26:37;7.68;;;4.38;;
37203;SDS011;23098;48.054;10.636;2024-02-26T12:29:04;10.32;;;4.82;;
37203;SDS011;23098;48.054;10.636;2024-02-26T12:31:30;6.72;;;4.50;;
37203;SDS011;23098;48.054;10.636;2024-02-26T12:33:57;4.93;;;3.33;;
37203;SDS011;23098;48.054;10.636;2024-02-26T12:36:23;7.22;;;3.70;;
37203;SDS011;23098;48.054;10.636;2024-02-26T12:38:50;7.55;;;3.80;;
37203;SDS011;23098;48.054;10.636;2024-02-26T12:41:16;5.50;;;3.80;;
37203;SDS011;23098;48.054;10.636;2024-02-26T12:43:42;6.00;;;3.85;;
37203;SDS011;23098;48.054;10.636;2024-02-26T12:46:07;4.63;;;3.42;;
37203;SDS011;23098;48.054;10.636;2024-02-26T12:48:33;4.82;;;2.90;;
37203;SDS011;23098;48.054;10.636;2024-02-26T12:50:59;4.20;;;2.92;;
37203;SDS011;23098;48.054;10.636;2024-02-26T12:53:25;4.07;;;2.88;;
37203;SDS011;23098;48.054;10.636;2024-02-26T12:55:52;8.00;;;3.40;;
37203;SDS011;23098;48.054;10.636;2024-02-26T12:58:19;4.70;;;3.25;;
37203;SDS011;23098;48.054;10.636;2024-02-26T13:00:49;5.50;;;3.78;;
37203;SDS011;23098;48.054;10.636;2024-02-26T13:03:16;5.88;;;3.38;;
37203;SDS011;23098;48.054;10.636;2024-02-26T13:05:42;4.55;;;2.80;;
37203;SDS011;23098;48.054;10.636;2024-02-26T13:08:08;4.85;;;3.45;;
37203;SDS011;23098;48.054;10.636;2024-02-26T13:10:33;9.10;;;3.75;;
37203;SDS011;23098;48.054;10.636;2024-02-26T13:13:01;6.15;;;3.78;;
37203;SDS011;23098;48.054;10.636;2024-02-26T13:15:27;6.13;;;3.25;;
37203;SDS011;23098;48.054;10.636;2024-02-26T13:17:53;5.13;;;3.35;;
37203;SDS011;23098;48.054;10.636;2024-02-26T13:20:27;11.68;;;4.85;;
37203;SDS011;23098;48.054;10.636;2024-02-26T13:23:03;6.10;;;3.67;;
37203;SDS011;23098;48.054;10.636;2024-02-26T13:25:30;6.60;;;3.47;;
37203;SDS011;23098;48.054;10.636;2024-02-26T13:28:08;6.05;;;3.78;;
37203;SDS011;23098;48.054;10.636;2024-02-26T13:30:38;7.30;;;4.00;;
37203;SDS011;23098;48.054;10.636;2024-02-26T13:33:10;8.50;;;4.95;;
37203;SDS011;23098;48.054;10.636;2024-02-26T13:35:37;9.48;;;4.20;;
37203;SDS011;23098;48.054;10.636;2024-02-26T13:38:04;7.05;;;4.55;;
37203;SDS011;23098;48.054;10.636;2024-02-26T13:40:30;10.10;;;6.20;;
37203;SDS011;23098;48.054;10.636;2024-02-26T13:42:56;7.05;;;4.38;;
37203;SDS011;23098;48.054;10.636;2024-02-26T13:45:22;7.40;;;3.85;;
37203;SDS011;23098;48.054;10.636;2024-02-26T13:47:47;7.20;;;4.63;;
37203;SDS011;23098;48.054;10.636;2024-02-26T13:50:12;7.63;;;4.88;;
37203;SDS011;23098;48.054;10.636;2024-02-26T13:52:38;6.75;;;4.20;;
37203;SDS011;23098;48.054;10.636;2024-02-26T13:55:04;5.32;;;3.97;;
37203;SDS011;23098;48.054;10.636;2024-02-26T13:57:30;9.30;;;3.95;;
37203;SDS011;23098;48.054;10.636;2024-02-26T13:59:55;7.45;;;3.92;;
37203;SDS011;23098;48.054;10.636;2024-02-26T14:02:21;7.35;;;4.38;;
37203;SDS011;23098;48.054;10.636;2024-02-26T14:04:46;5.95;;;4.20;;
37203;SDS011;23098;48.054;10.636;2024-02-26T14:07:12;4.82;;;3.38;;
37203;SDS011;23098;48.054;10.636;2024-02-26T14:09:38;9.52;;;3.72;;
37203;SDS011;23098;48.054;10.636;2024-02-26T14:12:03;4.22;;;3.13;;
37203;SDS011;23098;48.054;10.636;2024-02-26T14:14:29;4.35;;;3.15;;
37203;SDS011;23098;48.054;10.636;2024-02-26T14:16:57;4.60;;;3.28;;
37203;SDS011;23098;48.054;10.636;2024-02-26T14:19:23;6.20;;;3.03;;
37203;SDS011;23098;48.054;10.636;2024-02-26T14:21:49;5.55;;;3.10;;
37203;SDS011;23098;48.054;10.636;2024-02-26T14:24:14;9.50;;;5.20;;
37203;SDS011;23098;48.054;10.636;2024-02-26T14:26:40;5.90;;;4.00;;
37203;SDS011;23098;48.054;10.636;2024-02-26T14:29:06;4.93;;;3.72;;
37203;SDS011;23098;48.054;10.636;2024-02-26T14:31:32;4.90;;;3.65;;
37203;SDS011;23098;48.054;10.636;2024-02-26T14:33:58;5.50;;;3.70;;